createdAt,value
2022-12-14T00:08:02.095Z,85.0
2022-12-14T00:20:02.197Z,84.5
2022-12-14T00:32:02.175Z,84.6
2022-12-14T00:44:02.091Z,84.8
2022-12-14T00:56:02.086Z,85.3
2022-12-14T01:08:02.138Z,85.1
2022-12-14T01:20:02.108Z,84.3
2022-12-14T01:32:02.182Z,84.4
2022-12-14T01:44:02.162Z,84.1
2022-12-14T01:56:02.208Z,83.9
2022-12-14T02:08:02.100Z,84.1
2022-12-14T02:20:02.177Z,83.0
2022-12-14T02:32:02.101Z,83.0
2022-12-14T02:44:02.206Z,83.2
2022-12-14T02:56:02.184Z,83.0
2022-12-14T03:08:02.200Z,83.3
2022-12-14T03:20:02.196Z,82.3
2022-12-14T03:32:02.104Z,82.8
2022-12-14T03:44:02.192Z,83.5
2022-12-14T03:56:02.095Z,83.4
2022-12-14T04:08:02.094Z,81.9
2022-12-14T04:20:02.206Z,81.9
2022-12-14T04:32:02.302Z,81.9
2022-12-14T04:44:02.191Z,82.0
2022-12-14T04:56:02.189Z,82.3
2022-12-14T05:08:02.093Z,82.1
2022-12-14T05:20:02.203Z,82.0
2022-12-14T05:32:02.193Z,80.3
2022-12-14T05:44:02.094Z,81.1
2022-12-14T05:56:02.185Z,79.7
2022-12-14T06:08:02.187Z,80.7
2022-12-14T06:20:02.105Z,80.7
2022-12-14T06:32:02.095Z,81.0
2022-12-14T06:44:02.098Z,81.8
2022-12-14T06:56:02.178Z,87.6
2022-12-14T07:08:02.193Z,90.8
2022-12-14T07:20:02.104Z,92.9
2022-12-14T07:32:02.211Z,94.5
2022-12-14T07:44:02.183Z,95.0
2022-12-14T07:56:02.137Z,95.1
2022-12-14T08:08:02.089Z,95.3
2022-12-14T08:20:02.205Z,95.7
2022-12-14T08:32:02.162Z,95.6
2022-12-14T08:44:02.096Z,95.2
2022-12-14T08:56:02.211Z,95.6
2022-12-14T09:08:02.212Z,95.2
2022-12-14T09:20:02.208Z,95.6
2022-12-14T09:32:02.276Z,94.5
2022-12-14T09:44:02.207Z,94.7
2022-12-14T09:56:02.213Z,93.9
2022-12-14T10:08:02.206Z,94.5
2022-12-14T10:20:02.167Z,95.2
2022-12-14T10:32:02.309Z,94.1
2022-12-14T10:44:02.106Z,94.2
2022-12-14T10:56:02.155Z,93.4
2022-12-14T11:08:02.111Z,92.0
2022-12-14T11:20:02.205Z,91.5
2022-12-14T11:32:02.096Z,89.4
2022-12-14T11:44:02.197Z,90.4
2022-12-14T11:56:02.196Z,89.1
2022-12-14T12:08:02.121Z,90.4
2022-12-14T12:20:02.126Z,90.0
2022-12-14T12:32:02.110Z,89.7
2022-12-14T12:44:02.182Z,88.8
2022-12-14T12:56:02.186Z,90.9
2022-12-14T13:08:02.195Z,88.8
2022-12-14T13:20:02.104Z,89.8
2022-12-14T13:32:02.122Z,88.7
2022-12-14T13:44:02.203Z,87.3
2022-12-14T13:56:02.138Z,87.8
2022-12-14T14:08:02.209Z,87.4
2022-12-14T14:20:02.088Z,87.8
2022-12-14T14:32:02.234Z,89.5
2022-12-14T14:44:02.101Z,90.4
2022-12-14T14:56:02.200Z,93.3
2022-12-14T15:08:02.171Z,93.6
2022-12-14T15:20:02.244Z,93.9
2022-12-14T15:32:02.129Z,94.6
2022-12-14T15:44:02.211Z,94.9
2022-12-14T15:56:06.764Z,95.5
2022-12-14T16:08:02.211Z,95.7
2022-12-14T16:20:02.170Z,95.9
2022-12-14T16:32:02.112Z,95.8
2022-12-14T16:44:02.188Z,95.8
2022-12-14T16:56:02.097Z,96.7
2022-12-14T17:08:02.102Z,96.9
2022-12-14T17:20:02.108Z,97.2
2022-12-14T17:32:02.102Z,97.3
2022-12-14T17:44:02.215Z,97.3
2022-12-14T17:56:02.189Z,96.8
2022-12-14T18:08:02.154Z,96.7
2022-12-14T18:20:02.189Z,96.6
2022-12-14T18:32:02.331Z,96.2
2022-12-14T18:44:02.093Z,96.1
2022-12-14T18:56:02.171Z,96.1
2022-12-14T19:08:02.096Z,96.1
2022-12-14T19:20:02.110Z,96.1
2022-12-14T19:32:05.561Z,96.0
2022-12-14T19:44:02.176Z,96.4
2022-12-14T19:56:02.197Z,96.3
2022-12-14T20:08:02.096Z,96.2
2022-12-14T20:20:02.158Z,96.0
2022-12-14T20:32:02.273Z,96.4
2022-12-14T20:44:02.222Z,96.7
2022-12-14T20:56:02.090Z,97.0
2022-12-14T21:08:02.206Z,96.8
2022-12-14T21:20:02.211Z,95.2
2022-12-14T21:32:02.219Z,94.4
2022-12-14T21:44:02.185Z,95.3
2022-12-14T21:56:02.196Z,95.2
2022-12-14T22:08:02.196Z,96.6
2022-12-14T22:20:02.205Z,95.8
2022-12-14T22:32:02.213Z,96.5
2022-12-14T22:44:02.192Z,96.3
2022-12-14T22:56:02.169Z,98.0
2022-12-14T23:08:02.095Z,97.8
2022-12-14T23:20:04.836Z,97.6
2022-12-14T23:32:02.331Z,97.3
2022-12-14T23:44:02.178Z,98.3
2022-12-14T23:56:02.116Z,98.6
